sensor_id;sensor_type;location;lat;lon;timestamp;P1;durP1;ratioP1;P2;durP2;ratioP2
41436;SDS011;27178;49.460;10.850;2022-10-26T00:01:16;5.43;;;2.70;;
41436;SDS011;27178;49.460;10.850;2022-10-26T00:03:44;3.00;;;2.65;;
41436;SDS011;27178;49.460;10.850;2022-10-26T00:06:13;3.40;;;2.40;;
41436;SDS011;27178;49.460;10.850;2022-10-26T00:08:46;5.00;;;2.38;;
41436;SDS011;27178;49.460;10.850;2022-10-26T00:11:15;4.18;;;2.40;;
41436;SDS011;27178;49.460;10.850;2022-10-26T00:13:44;3.95;;;2.40;;
41436;SDS011;27178;49.460;10.850;2022-10-26T00:16:14;3.53;;;2.63;;
41436;SDS011;27178;49.460;10.850;2022-10-26T00:18:43;8.85;;;2.58;;
41436;SDS011;27178;49.460;10.850;2022-10-26T00:21:12;4.63;;;2.28;;
41436;SDS011;27178;49.460;10.850;2022-10-26T00:23:43;3.70;;;2.03;;
41436;SDS011;27178;49.460;10.850;2022-10-26T00:26:13;5.10;;;2.33;;
41436;SDS011;27178;49.460;10.850;2022-10-26T00:28:41;4.13;;;2.50;;
41436;SDS011;27178;49.460;10.850;2022-10-26T00:31:11;2.58;;;2.38;;
41436;SDS011;27178;49.460;10.850;2022-10-26T00:33:40;5.10;;;2.40;;
41436;SDS011;27178;49.460;10.850;2022-10-26T00:36:09;5.43;;;2.72;;
41436;SDS011;27178;49.460;10.850;2022-10-26T00:38:39;3.90;;;2.55;;
41436;SDS011;27178;49.460;10.850;2022-10-26T00:41:14;3.60;;;2.83;;
41436;SDS011;27178;49.460;10.850;2022-10-26T00:43:43;3.13;;;2.67;;
41436;SDS011;27178;49.460;10.850;2022-10-26T00:46:12;4.28;;;2.90;;
41436;SDS011;27178;49.460;10.850;2022-10-26T00:48:44;7.00;;;3.45;;
41436;SDS011;27178;49.460;10.850;2022-10-26T00:51:19;3.95;;;3.42;;
41436;SDS011;27178;49.460;10.850;2022-10-26T00:53:50;5.07;;;3.88;;
41436;SDS011;27178;49.460;10.850;2022-10-26T00:56:21;6.75;;;3.45;;
41436;SDS011;27178;49.460;10.850;2022-10-26T00:58:50;6.75;;;3.90;;
41436;SDS011;27178;49.460;10.850;2022-10-26T01:01:19;3.88;;;3.58;;
41436;SDS011;27178;49.460;10.850;2022-10-26T01:03:48;4.50;;;3.20;;
41436;SDS011;27178;49.460;10.850;2022-10-26T01:06:16;4.05;;;3.28;;
41436;SDS011;27178;49.460;10.850;2022-10-26T01:08:45;7.25;;;3.70;;
41436;SDS011;27178;49.460;10.850;2022-10-26T01:11:15;4.93;;;3.55;;
41436;SDS011;27178;49.460;10.850;2022-10-26T01:13:45;3.95;;;3.65;;
41436;SDS011;27178;49.460;10.850;2022-10-26T01:16:28;3.50;;;3.20;;
41436;SDS011;27178;49.460;10.850;2022-10-26T01:19:16;5.82;;;3.65;;
41436;SDS011;27178;49.460;10.850;2022-10-26T01:22:05;6.15;;;3.67;;
41436;SDS011;27178;49.460;10.850;2022-10-26T01:24:46;6.13;;;3.42;;
41436;SDS011;27178;49.460;10.850;2022-10-26T01:27:29;3.75;;;3.40;;
41436;SDS011;27178;49.460;10.850;2022-10-26T01:30:18;6.57;;;3.47;;
41436;SDS011;27178;49.460;10.850;2022-10-26T01:39:32;3.92;;;3.45;;
41436;SDS011;27178;49.460;10.850;2022-10-26T01:42:05;5.13;;;3.60;;
41436;SDS011;27178;49.460;10.850;2022-10-26T01:44:36;5.90;;;3.67;;
41436;SDS011;27178;49.460;10.850;2022-10-26T01:47:10;5.55;;;3.67;;
41436;SDS011;27178;49.460;10.850;2022-10-26T01:49:48;3.63;;;3.33;;
41436;SDS011;27178;49.460;10.850;2022-10-26T01:52:20;6.95;;;3.65;;
41436;SDS011;27178;49.460;10.850;2022-10-26T01:54:49;3.40;;;3.10;;
41436;SDS011;27178;49.460;10.850;2022-10-26T01:57:18;5.05;;;3.30;;
41436;SDS011;27178;49.460;10.850;2022-10-26T02:00:03;4.57;;;3.22;;
41436;SDS011;27178;49.460;10.850;2022-10-26T02:05:38;3.10;;;2.78;;
41436;SDS011;27178;49.460;10.850;2022-10-26T02:08:20;4.55;;;3.10;;
41436;SDS011;27178;49.460;10.850;2022-10-26T02:11:16;4.10;;;2.63;;
41436;SDS011;27178;49.460;10.850;2022-10-26T02:13:53;5.78;;;3.20;;
41436;SDS011;27178;49.460;10.850;2022-10-26T02:16:28;5.13;;;3.40;;
41436;SDS011;27178;49.460;10.850;2022-10-26T02:19:04;5.07;;;2.90;;
41436;SDS011;27178;49.460;10.850;2022-10-26T02:21:39;2.92;;;2.47;;
41436;SDS011;27178;49.460;10.850;2022-10-26T02:24:12;5.60;;;2.78;;
41436;SDS011;27178;49.460;10.850;2022-10-26T02:26:43;3.10;;;2.72;;
41436;SDS011;27178;49.460;10.850;2022-10-26T02:29:14;7.45;;;3.33;;
41436;SDS011;27178;49.460;10.850;2022-10-26T02:31:45;3.70;;;3.38;;
41436;SDS011;27178;49.460;10.850;2022-10-26T02:34:17;3.63;;;3.08;;
41436;SDS011;27178;49.460;10.850;2022-10-26T02:36:50;3.38;;;2.90;;
41436;SDS011;27178;49.460;10.850;2022-10-26T02:39:21;5.50;;;3.80;;
41436;SDS011;27178;49.460;10.850;2022-10-26T02:41:50;6.95;;;4.30;;
41436;SDS011;27178;49.460;10.850;2022-10-26T02:44:20;4.95;;;4.00;;
41436;SDS011;27178;49.460;10.850;2022-10-26T02:46:51;8.40;;;4.15;;
41436;SDS011;27178;49.460;10.850;2022-10-26T02:49:22;6.32;;;3.83;;
41436;SDS011;27178;49.460;10.850;2022-10-26T02:51:52;4.28;;;3.80;;
41436;SDS011;27178;49.460;10.850;2022-10-26T02:54:30;5.05;;;4.22;;
41436;SDS011;27178;49.460;10.850;2022-10-26T02:57:04;3.60;;;3.30;;
41436;SDS011;27178;49.460;10.850;2022-10-26T02:59:37;4.88;;;3.67;;
41436;SDS011;27178;49.460;10.850;2022-10-26T03:02:09;5.50;;;3.60;;
41436;SDS011;27178;49.460;10.850;2022-10-26T03:04:39;6.63;;;3.38;;
41436;SDS011;27178;49.460;10.850;2022-10-26T03:07:09;4.18;;;3.40;;
41436;SDS011;27178;49.460;10.850;2022-10-26T03:09:37;4.82;;;3.53;;
41436;SDS011;27178;49.460;10.850;2022-10-26T03:12:06;3.97;;;3.45;;
41436;SDS011;27178;49.460;10.850;2022-10-26T03:14:34;4.53;;;3.10;;
41436;SDS011;27178;49.460;10.850;2022-10-26T03:17:02;4.50;;;3.47;;
41436;SDS011;27178;49.460;10.850;2022-10-26T03:19:31;4.05;;;3.55;;
41436;SDS011;27178;49.460;10.850;2022-10-26T03:21:59;4.72;;;3.08;;
41436;SDS011;27178;49.460;10.850;2022-10-26T03:24:29;5.93;;;3.45;;
41436;SDS011;27178;49.460;10.850;2022-10-26T03:26:58;3.58;;;3.13;;
41436;SDS011;27178;49.460;10.850;2022-10-26T03:29:27;5.72;;;3.55;;
41436;SDS011;27178;49.460;10.850;2022-10-26T03:31:56;4.82;;;3.17;;
41436;SDS011;27178;49.460;10.850;2022-10-26T03:34:24;3.80;;;3.28;;
41436;SDS011;27178;49.460;10.850;2022-10-26T03:36:52;4.13;;;3.08;;
41436;SDS011;27178;49.460;10.850;2022-10-26T03:39:21;3.75;;;3.38;;
41436;SDS011;27178;49.460;10.850;2022-10-26T03:41:50;4.13;;;3.17;;
41436;SDS011;27178;49.460;10.850;2022-10-26T03:44:21;4.20;;;3.50;;
41436;SDS011;27178;49.460;10.850;2022-10-26T03:46:49;3.55;;;3.25;;
41436;SDS011;27178;49.460;10.850;2022-10-26T03:49:17;5.72;;;3.35;;
41436;SDS011;27178;49.460;10.850;2022-10-26T03:51:45;9.02;;;3.35;;
41436;SDS011;27178;49.460;10.850;2022-10-26T03:54:14;4.00;;;3.30;;
41436;SDS011;27178;49.460;10.850;2022-10-26T03:56:42;3.75;;;3.30;;
41436;SDS011;27178;49.460;10.850;2022-10-26T03:59:12;3.70;;;3.40;;
41436;SDS011;27178;49.460;10.850;2022-10-26T04:01:41;3.65;;;3.08;;
41436;SDS011;27178;49.460;10.850;2022-10-26T04:04:09;4.38;;;3.40;;
41436;SDS011;27178;49.460;10.850;2022-10-26T04:06:38;4.00;;;3.40;;
41436;SDS011;27178;49.460;10.850;2022-10-26T04:09:06;4.55;;;3.65;;
41436;SDS011;27178;49.460;10.850;2022-10-26T04:11:34;5.50;;;3.40;;
41436;SDS011;27178;49.460;10.850;2022-10-26T04:14:03;3.90;;;3.42;;
41436;SDS011;27178;49.460;10.850;2022-10-26T04:16:32;4.15;;;3.67;;
41436;SDS011;27178;49.460;10.850;2022-10-26T04:19:01;3.95;;;3.10;;
41436;SDS011;27178;49.460;10.850;2022-10-26T04:21:30;4.35;;;3.45;;
41436;SDS011;27178;49.460;10.850;2022-10-26T04:24:00;4.53;;;3.67;;
41436;SDS011;27178;49.460;10.850;2022-10-26T04:26:29;5.28;;;3.00;;
41436;SDS011;27178;49.460;10.850;2022-10-26T04:28:57;5.57;;;3.13;;
41436;SDS011;27178;49.460;10.850;2022-10-26T04:31:25;3.47;;;3.17;;
41436;SDS011;27178;49.460;10.850;2022-10-26T04:33:55;3.33;;;2.97;;
41436;SDS011;27178;49.460;10.850;2022-10-26T04:36:24;4.18;;;3.17;;
41436;SDS011;27178;49.460;10.850;2022-10-26T04:38:52;3.40;;;3.10;;
41436;SDS011;27178;49.460;10.850;2022-10-26T04:41:20;4.50;;;3.00;;
41436;SDS011;27178;49.460;10.850;2022-10-26T04:43:49;3.83;;;2.95;;
41436;SDS011;27178;49.460;10.850;2022-10-26T04:46:17;4.95;;;3.40;;
41436;SDS011;27178;49.460;10.850;2022-10-26T04:48:46;3.97;;;2.83;;
41436;SDS011;27178;49.460;10.850;2022-10-26T04:51:16;4.22;;;2.75;;
41436;SDS011;27178;49.460;10.850;2022-10-26T04:53:44;3.55;;;2.83;;
41436;SDS011;27178;49.460;10.850;2022-10-26T04:56:12;5.68;;;2.55;;
41436;SDS011;27178;49.460;10.850;2022-10-26T04:58:41;4.72;;;2.58;;
41436;SDS011;27178;49.460;10.850;2022-10-26T05:01:09;7.90;;;2.55;;
41436;SDS011;27178;49.460;10.850;2022-10-26T05:03:38;3.40;;;2.55;;
41436;SDS011;27178;49.460;10.850;2022-10-26T05:06:06;3.35;;;2.25;;
41436;SDS011;27178;49.460;10.850;2022-10-26T05:08:36;3.70;;;2.50;;
41436;SDS011;27178;49.460;10.850;2022-10-26T05:11:05;4.90;;;2.15;;
41436;SDS011;27178;49.460;10.850;2022-10-26T05:13:33;7.53;;;2.70;;
41436;SDS011;27178;49.460;10.850;2022-10-26T05:16:02;4.95;;;2.85;;
41436;SDS011;27178;49.460;10.850;2022-10-26T05:18:30;7.25;;;2.53;;
41436;SDS011;27178;49.460;10.850;2022-10-26T05:20:59;3.03;;;2.67;;
41436;SDS011;27178;49.460;10.850;2022-10-26T05:23:27;7.03;;;2.45;;
41436;SDS011;27178;49.460;10.850;2022-10-26T05:25:57;3.28;;;2.97;;
41436;SDS011;27178;49.460;10.850;2022-10-26T05:28:25;4.50;;;2.85;;
41436;SDS011;27178;49.460;10.850;2022-10-26T05:30:53;5.25;;;2.80;;
41436;SDS011;27178;49.460;10.850;2022-10-26T05:33:25;2.63;;;2.33;;
41436;SDS011;27178;49.460;10.850;2022-10-26T05:35:53;3.60;;;2.38;;
41436;SDS011;27178;49.460;10.850;2022-10-26T05:38:22;5.05;;;2.72;;
41436;SDS011;27178;49.460;10.850;2022-10-26T05:40:51;3.70;;;2.53;;
41436;SDS011;27178;49.460;10.850;2022-10-26T05:43:22;6.50;;;2.50;;
41436;SDS011;27178;49.460;10.850;2022-10-26T05:45:50;4.45;;;2.55;;
41436;SDS011;27178;49.460;10.850;2022-10-26T05:48:19;3.15;;;2.53;;
41436;SDS011;27178;49.460;10.850;2022-10-26T05:50:47;5.00;;;2.78;;
41436;SDS011;27178;49.460;10.850;2022-10-26T05:53:16;4.10;;;2.72;;
41436;SDS011;27178;49.460;10.850;2022-10-26T05:55:45;4.05;;;3.05;;
41436;SDS011;27178;49.460;10.850;2022-10-26T05:58:14;4.57;;;2.63;;
41436;SDS011;27178;49.460;10.850;2022-10-26T06:00:47;4.28;;;2.63;;
41436;SDS011;27178;49.460;10.850;2022-10-26T06:03:27;2.45;;;2.25;;
41436;SDS011;27178;49.460;10.850;2022-10-26T06:06:05;4.75;;;2.30;;
41436;SDS011;27178;49.460;10.850;2022-10-26T06:08:38;3.38;;;2.33;;
41436;SDS011;27178;49.460;10.850;2022-10-26T06:11:08;3.33;;;2.28;;
41436;SDS011;27178;49.460;10.850;2022-10-26T06:13:37;5.57;;;2.92;;
41436;SDS011;27178;49.460;10.850;2022-10-26T06:16:13;2.53;;;2.22;;
41436;SDS011;27178;49.460;10.850;2022-10-26T06:18:57;4.93;;;2.33;;
41436;SDS011;27178;49.460;10.850;2022-10-26T06:21:39;3.30;;;2.47;;
41436;SDS011;27178;49.460;10.850;2022-10-26T06:24:20;5.72;;;2.35;;
41436;SDS011;27178;49.460;10.850;2022-10-26T06:26:54;3.45;;;2.15;;
41436;SDS011;27178;49.460;10.850;2022-10-26T06:29:31;2.15;;;2.03;;
41436;SDS011;27178;49.460;10.850;2022-10-26T06:32:09;2.58;;;1.90;;
41436;SDS011;27178;49.460;10.850;2022-10-26T06:34:41;3.85;;;2.30;;
41436;SDS011;27178;49.460;10.850;2022-10-26T06:37:13;2.63;;;2.20;;
41436;SDS011;27178;49.460;10.850;2022-10-26T06:39:42;2.20;;;2.00;;
41436;SDS011;27178;49.460;10.850;2022-10-26T06:42:18;2.38;;;2.13;;
41436;SDS011;27178;49.460;10.850;2022-10-26T06:44:47;5.32;;;2.30;;
41436;SDS011;27178;49.460;10.850;2022-10-26T06:47:17;4.30;;;2.55;;
41436;SDS011;27178;49.460;10.850;2022-10-26T06:49:55;3.97;;;2.60;;
41436;SDS011;27178;49.460;10.850;2022-10-26T06:52:31;2.60;;;2.17;;
41436;SDS011;27178;49.460;10.850;2022-10-26T06:55:03;3.08;;;2.00;;
41436;SDS011;27178;49.460;10.850;2022-10-26T06:57:33;2.65;;;2.40;;
41436;SDS011;27178;49.460;10.850;2022-10-26T07:00:04;2.47;;;2.20;;
41436;SDS011;27178;49.460;10.850;2022-10-26T07:02:35;3.08;;;2.38;;
41436;SDS011;27178;49.460;10.850;2022-10-26T07:05:04;2.20;;;2.00;;
41436;SDS011;27178;49.460;10.850;2022-10-26T07:07:35;2.92;;;2.42;;
41436;SDS011;27178;49.460;10.850;2022-10-26T07:10:07;4.90;;;2.58;;
41436;SDS011;27178;49.460;10.850;2022-10-26T07:12:36;2.40;;;2.20;;
41436;SDS011;27178;49.460;10.850;2022-10-26T07:15:04;3.17;;;2.25;;
41436;SDS011;27178;49.460;10.850;2022-10-26T07:17:42;2.60;;;1.92;;
41436;SDS011;27178;49.460;10.850;2022-10-26T07:20:12;2.75;;;2.10;;
41436;SDS011;27178;49.460;10.850;2022-10-26T07:22:41;2.17;;;2.00;;
41436;SDS011;27178;49.460;10.850;2022-10-26T07:25:10;2.55;;;2.10;;
41436;SDS011;27178;49.460;10.850;2022-10-26T07:27:38;3.75;;;2.88;;
41436;SDS011;27178;49.460;10.850;2022-10-26T07:30:07;2.90;;;2.50;;
41436;SDS011;27178;49.460;10.850;2022-10-26T07:32:36;3.88;;;2.28;;
41436;SDS011;27178;49.460;10.850;2022-10-26T07:35:06;3.03;;;2.60;;
41436;SDS011;27178;49.460;10.850;2022-10-26T07:37:35;5.47;;;2.88;;
41436;SDS011;27178;49.460;10.850;2022-10-26T07:40:04;4.30;;;2.60;;
41436;SDS011;27178;49.460;10.850;2022-10-26T07:42:34;4.65;;;2.92;;
41436;SDS011;27178;49.460;10.850;2022-10-26T07:45:03;3.38;;;2.92;;
41436;SDS011;27178;49.460;10.850;2022-10-26T07:47:32;3.90;;;3.33;;
41436;SDS011;27178;49.460;10.850;2022-10-26T07:50:00;4.55;;;3.05;;
41436;SDS011;27178;49.460;10.850;2022-10-26T07:52:32;5.22;;;3.28;;
41436;SDS011;27178;49.460;10.850;2022-10-26T07:55:02;5.57;;;3.40;;
41436;SDS011;27178;49.460;10.850;2022-10-26T07:57:32;3.97;;;3.17;;
41436;SDS011;27178;49.460;10.850;2022-10-26T08:00:02;3.50;;;3.00;;
41436;SDS011;27178;49.460;10.850;2022-10-26T08:02:32;8.27;;;3.60;;
41436;SDS011;27178;49.460;10.850;2022-10-26T08:05:01;4.93;;;3.85;;
41436;SDS011;27178;49.460;10.850;2022-10-26T08:07:30;6.63;;;3.53;;
41436;SDS011;27178;49.460;10.850;2022-10-26T08:10:00;3.55;;;3.13;;
41436;SDS011;27178;49.460;10.850;2022-10-26T08:12:30;3.10;;;2.80;;
41436;SDS011;27178;49.460;10.850;2022-10-26T08:14:58;3.33;;;2.45;;
41436;SDS011;27178;49.460;10.850;2022-10-26T08:17:27;4.47;;;2.60;;
41436;SDS011;27178;49.460;10.850;2022-10-26T08:19:55;6.53;;;2.28;;
41436;SDS011;27178;49.460;10.850;2022-10-26T08:22:24;2.88;;;2.58;;
41436;SDS011;27178;49.460;10.850;2022-10-26T08:24:56;3.67;;;2.53;;
41436;SDS011;27178;49.460;10.850;2022-10-26T08:27:24;2.40;;;2.20;;
41436;SDS011;27178;49.460;10.850;2022-10-26T08:29:53;3.13;;;2.42;;
41436;SDS011;27178;49.460;10.850;2022-10-26T08:32:21;2.88;;;2.67;;
41436;SDS011;27178;49.460;10.850;2022-10-26T08:34:50;5.72;;;3.05;;
41436;SDS011;27178;49.460;10.850;2022-10-26T08:37:18;4.38;;;2.70;;
41436;SDS011;27178;49.460;10.850;2022-10-26T08:39:46;4.25;;;2.97;;
41436;SDS011;27178;49.460;10.850;2022-10-26T08:42:22;4.93;;;3.28;;
41436;SDS011;27178;49.460;10.850;2022-10-26T08:44:56;6.93;;;2.92;;
41436;SDS011;27178;49.460;10.850;2022-10-26T08:47:29;3.30;;;2.65;;
41436;SDS011;27178;49.460;10.850;2022-10-26T08:50:03;6.00;;;2.75;;
41436;SDS011;27178;49.460;10.850;2022-10-26T08:52:39;3.28;;;2.70;;
41436;SDS011;27178;49.460;10.850;2022-10-26T08:55:11;2.38;;;2.17;;
41436;SDS011;27178;49.460;10.850;2022-10-26T08:57:44;2.95;;;2.40;;
41436;SDS011;27178;49.460;10.850;2022-10-26T09:00:16;3.13;;;2.35;;
41436;SDS011;27178;49.460;10.850;2022-10-26T09:02:48;3.67;;;2.00;;
41436;SDS011;27178;49.460;10.850;2022-10-26T09:05:21;2.28;;;2.08;;
41436;SDS011;27178;49.460;10.850;2022-10-26T09:07:58;4.53;;;2.13;;
41436;SDS011;27178;49.460;10.850;2022-10-26T09:10:37;4.75;;;2.38;;
41436;SDS011;27178;49.460;10.850;2022-10-26T09:13:12;1.85;;;1.75;;
41436;SDS011;27178;49.460;10.850;2022-10-26T09:15:52;2.92;;;2.03;;
41436;SDS011;27178;49.460;10.850;2022-10-26T09:18:34;3.25;;;2.25;;
41436;SDS011;27178;49.460;10.850;2022-10-26T09:21:17;3.83;;;2.17;;
41436;SDS011;27178;49.460;10.850;2022-10-26T09:23:58;3.05;;;2.20;;
41436;SDS011;27178;49.460;10.850;2022-10-26T09:26:32;2.55;;;2.25;;
41436;SDS011;27178;49.460;10.850;2022-10-26T09:29:09;2.25;;;2.05;;
41436;SDS011;27178;49.460;10.850;2022-10-26T09:31:40;2.72;;;2.20;;
41436;SDS011;27178;49.460;10.850;2022-10-26T09:34:16;2.78;;;2.00;;
41436;SDS011;27178;49.460;10.850;2022-10-26T09:36:52;2.35;;;2.08;;
41436;SDS011;27178;49.460;10.850;2022-10-26T09:39:23;2.53;;;2.15;;
41436;SDS011;27178;49.460;10.850;2022-10-26T09:42:04;6.75;;;2.85;;
41436;SDS011;27178;49.460;10.850;2022-10-26T09:44:44;3.30;;;2.30;;
41436;SDS011;27178;49.460;10.850;2022-10-26T09:47:21;2.40;;;2.20;;
41436;SDS011;27178;49.460;10.850;2022-10-26T09:49:57;3.40;;;2.45;;
41436;SDS011;27178;49.460;10.850;2022-10-26T09:52:31;2.63;;;2.08;;
41436;SDS011;27178;49.460;10.850;2022-10-26T09:55:00;3.17;;;2.40;;
41436;SDS011;27178;49.460;10.850;2022-10-26T09:57:29;3.15;;;2.30;;
41436;SDS011;27178;49.460;10.850;2022-10-26T09:59:58;3.70;;;2.40;;
41436;SDS011;27178;49.460;10.850;2022-10-26T10:02:34;3.72;;;2.50;;
41436;SDS011;27178;49.460;10.850;2022-10-26T10:08:16;3.17;;;2.35;;
41436;SDS011;27178;49.460;10.850;2022-10-26T10:10:55;4.15;;;2.50;;
41436;SDS011;27178;49.460;10.850;2022-10-26T10:13:26;2.80;;;2.03;;
41436;SDS011;27178;49.460;10.850;2022-10-26T10:16:02;3.17;;;2.72;;
41436;SDS011;27178;49.460;10.850;2022-10-26T10:18:33;3.03;;;2.42;;
41436;SDS011;27178;49.460;10.850;2022-10-26T10:21:04;3.03;;;2.30;;
41436;SDS011;27178;49.460;10.850;2022-10-26T10:23:34;3.15;;;2.40;;
41436;SDS011;27178;49.460;10.850;2022-10-26T10:26:05;3.72;;;2.80;;
41436;SDS011;27178;49.460;10.850;2022-10-26T10:28:36;4.68;;;2.78;;
41436;SDS011;27178;49.460;10.850;2022-10-26T10:31:18;2.60;;;1.95;;
41436;SDS011;27178;49.460;10.850;2022-10-26T10:33:47;5.53;;;2.75;;
41436;SDS011;27178;49.460;10.850;2022-10-26T10:36:17;4.40;;;2.08;;
41436;SDS011;27178;49.460;10.850;2022-10-26T10:38:48;4.35;;;1.98;;
41436;SDS011;27178;49.460;10.850;2022-10-26T10:41:20;2.90;;;2.45;;
41436;SDS011;27178;49.460;10.850;2022-10-26T10:43:53;3.08;;;2.20;;
41436;SDS011;27178;49.460;10.850;2022-10-26T10:46:34;4.95;;;2.38;;
41436;SDS011;27178;49.460;10.850;2022-10-26T10:49:05;6.10;;;2.72;;
41436;SDS011;27178;49.460;10.850;2022-10-26T10:51:43;4.18;;;2.58;;
41436;SDS011;27178;49.460;10.850;2022-10-26T10:54:16;7.47;;;2.65;;
41436;SDS011;27178;49.460;10.850;2022-10-26T10:56:50;4.38;;;2.72;;
41436;SDS011;27178;49.460;10.850;2022-10-26T10:59:27;3.67;;;2.30;;
41436;SDS011;27178;49.460;10.850;2022-10-26T11:05:26;2.63;;;2.08;;
41436;SDS011;27178;49.460;10.850;2022-10-26T11:08:06;2.67;;;2.20;;
41436;SDS011;27178;49.460;10.850;2022-10-26T11:10:38;3.38;;;2.05;;
41436;SDS011;27178;49.460;10.850;2022-10-26T11:13:14;4.72;;;2.10;;
41436;SDS011;27178;49.460;10.850;2022-10-26T11:15:46;2.95;;;2.20;;
41436;SDS011;27178;49.460;10.850;2022-10-26T11:18:20;4.13;;;2.40;;
41436;SDS011;27178;49.460;10.850;2022-10-26T11:20:53;2.40;;;2.00;;
41436;SDS011;27178;49.460;10.850;2022-10-26T11:23:27;5.22;;;2.38;;
41436;SDS011;27178;49.460;10.850;2022-10-26T11:26:04;2.75;;;2.20;;
41436;SDS011;27178;49.460;10.850;2022-10-26T11:28:39;4.55;;;2.03;;
41436;SDS011;27178;49.460;10.850;2022-10-26T11:31:16;5.20;;;2.40;;
41436;SDS011;27178;49.460;10.850;2022-10-26T11:33:52;5.20;;;2.35;;
41436;SDS011;27178;49.460;10.850;2022-10-26T11:36:31;3.53;;;2.80;;
41436;SDS011;27178;49.460;10.850;2022-10-26T11:39:04;4.72;;;2.92;;
41436;SDS011;27178;49.460;10.850;2022-10-26T11:41:42;2.80;;;2.42;;
41436;SDS011;27178;49.460;10.850;2022-10-26T11:44:16;4.50;;;2.58;;
41436;SDS011;27178;49.460;10.850;2022-10-26T11:46:49;6.40;;;2.60;;
41436;SDS011;27178;49.460;10.850;2022-10-26T11:49:25;7.30;;;3.15;;
41436;SDS011;27178;49.460;10.850;2022-10-26T11:52:01;4.68;;;2.55;;
41436;SDS011;27178;49.460;10.850;2022-10-26T11:54:36;6.40;;;2.45;;
41436;SDS011;27178;49.460;10.850;2022-10-26T11:57:08;2.58;;;2.10;;
41436;SDS011;27178;49.460;10.850;2022-10-26T11:59:38;6.70;;;2.45;;
41436;SDS011;27178;49.460;10.850;2022-10-26T12:02:13;6.13;;;2.20;;
41436;SDS011;27178;49.460;10.850;2022-10-26T12:04:44;3.60;;;2.08;;
41436;SDS011;27178;49.460;10.850;2022-10-26T12:07:19;3.85;;;2.20;;
41436;SDS011;27178;49.460;10.850;2022-10-26T12:09:51;3.17;;;2.00;;
41436;SDS011;27178;49.460;10.850;2022-10-26T12:12:25;2.08;;;1.88;;
41436;SDS011;27178;49.460;10.850;2022-10-26T12:15:04;4.45;;;2.55;;
41436;SDS011;27178;49.460;10.850;2022-10-26T12:17:45;2.45;;;1.80;;
41436;SDS011;27178;49.460;10.850;2022-10-26T12:20:29;3.42;;;1.95;;
41436;SDS011;27178;49.460;10.850;2022-10-26T12:23:18;3.30;;;2.13;;
41436;SDS011;27178;49.460;10.850;2022-10-26T12:29:24;3.35;;;2.20;;
41436;SDS011;27178;49.460;10.850;2022-10-26T12:35:30;2.92;;;2.00;;
41436;SDS011;27178;49.460;10.850;2022-10-26T12:41:19;5.68;;;2.30;;
41436;SDS011;27178;49.460;10.850;2022-10-26T12:43:49;3.58;;;2.00;;
41436;SDS011;27178;49.460;10.850;2022-10-26T12:52:31;4.75;;;2.50;;
41436;SDS011;27178;49.460;10.850;2022-10-26T12:58:23;4.60;;;2.03;;
41436;SDS011;27178;49.460;10.850;2022-10-26T13:01:10;4.90;;;2.10;;
41436;SDS011;27178;49.460;10.850;2022-10-26T13:04:07;4.72;;;2.30;;
41436;SDS011;27178;49.460;10.850;2022-10-26T13:06:56;5.68;;;2.22;;
41436;SDS011;27178;49.460;10.850;2022-10-26T13:09:45;5.05;;;2.17;;
41436;SDS011;27178;49.460;10.850;2022-10-26T13:12:25;4.25;;;2.20;;
41436;SDS011;27178;49.460;10.850;2022-10-26T13:15:02;3.88;;;2.22;;
41436;SDS011;27178;49.460;10.850;2022-10-26T13:17:33;6.90;;;2.20;;
41436;SDS011;27178;49.460;10.850;2022-10-26T13:20:02;3.08;;;1.90;;
41436;SDS011;27178;49.460;10.850;2022-10-26T13:22:33;6.40;;;2.42;;
41436;SDS011;27178;49.460;10.850;2022-10-26T13:25:20;2.58;;;1.75;;
41436;SDS011;27178;49.460;10.850;2022-10-26T13:27:57;3.05;;;1.90;;
41436;SDS011;27178;49.460;10.850;2022-10-26T13:30:40;4.20;;;2.20;;
41436;SDS011;27178;49.460;10.850;2022-10-26T13:33:23;3.50;;;2.40;;
41436;SDS011;27178;49.460;10.850;2022-10-26T13:36:00;3.97;;;2.10;;
41436;SDS011;27178;49.460;10.850;2022-10-26T13:38:33;2.70;;;1.63;;
41436;SDS011;27178;49.460;10.850;2022-10-26T13:41:06;2.55;;;1.90;;
41436;SDS011;27178;49.460;10.850;2022-10-26T13:43:42;2.58;;;1.90;;
41436;SDS011;27178;49.460;10.850;2022-10-26T13:46:19;5.03;;;1.70;;
41436;SDS011;27178;49.460;10.850;2022-10-26T13:48:52;4.15;;;1.77;;
41436;SDS011;27178;49.460;10.850;2022-10-26T13:51:30;6.50;;;2.00;;
41436;SDS011;27178;49.460;10.850;2022-10-26T13:54:06;2.90;;;1.85;;
41436;SDS011;27178;49.460;10.850;2022-10-26T13:56:47;1.92;;;1.65;;
41436;SDS011;27178;49.460;10.850;2022-10-26T13:59:25;4.32;;;1.95;;
41436;SDS011;27178;49.460;10.850;2022-10-26T14:02:07;4.97;;;2.08;;
41436;SDS011;27178;49.460;10.850;2022-10-26T14:04:45;3.53;;;1.92;;
41436;SDS011;27178;49.460;10.850;2022-10-26T14:07:15;4.60;;;2.00;;
41436;SDS011;27178;49.460;10.850;2022-10-26T14:09:52;3.92;;;1.70;;
41436;SDS011;27178;49.460;10.850;2022-10-26T14:12:25;7.50;;;2.33;;
41436;SDS011;27178;49.460;10.850;2022-10-26T14:14:56;4.50;;;2.25;;
41436;SDS011;27178;49.460;10.850;2022-10-26T14:17:29;2.92;;;2.10;;
41436;SDS011;27178;49.460;10.850;2022-10-26T14:19:58;4.75;;;2.00;;
41436;SDS011;27178;49.460;10.850;2022-10-26T14:22:26;3.03;;;2.08;;
41436;SDS011;27178;49.460;10.850;2022-10-26T14:24:56;6.55;;;2.33;;
41436;SDS011;27178;49.460;10.850;2022-10-26T14:27:30;5.85;;;2.25;;
41436;SDS011;27178;49.460;10.850;2022-10-26T14:29:59;2.85;;;1.83;;
41436;SDS011;27178;49.460;10.850;2022-10-26T14:32:47;2.17;;;1.95;;
41436;SDS011;27178;49.460;10.850;2022-10-26T14:35:17;4.85;;;2.10;;
41436;SDS011;27178;49.460;10.850;2022-10-26T14:37:49;2.78;;;1.92;;
41436;SDS011;27178;49.460;10.850;2022-10-26T14:40:21;4.80;;;1.73;;
41436;SDS011;27178;49.460;10.850;2022-10-26T14:42:53;5.10;;;1.95;;
41436;SDS011;27178;49.460;10.850;2022-10-26T14:45:26;5.55;;;2.22;;
41436;SDS011;27178;49.460;10.850;2022-10-26T14:48:24;2.20;;;1.50;;
41436;SDS011;27178;49.460;10.850;2022-10-26T14:50:59;6.40;;;1.98;;
41436;SDS011;27178;49.460;10.850;2022-10-26T14:53:34;3.17;;;1.55;;
41436;SDS011;27178;49.460;10.850;2022-10-26T14:56:05;4.00;;;1.80;;
41436;SDS011;27178;49.460;10.850;2022-10-26T14:58:53;5.45;;;1.98;;
41436;SDS011;27178;49.460;10.850;2022-10-26T15:01:29;5.68;;;2.15;;
41436;SDS011;27178;49.460;10.850;2022-10-26T15:04:02;3.20;;;1.73;;
41436;SDS011;27178;49.460;10.850;2022-10-26T15:06:39;5.40;;;2.15;;
41436;SDS011;27178;49.460;10.850;2022-10-26T15:11:57;4.78;;;1.77;;
41436;SDS011;27178;49.460;10.850;2022-10-26T15:14:27;3.70;;;1.80;;
41436;SDS011;27178;49.460;10.850;2022-10-26T15:16:56;4.15;;;1.98;;
41436;SDS011;27178;49.460;10.850;2022-10-26T15:19:25;4.97;;;1.85;;
41436;SDS011;27178;49.460;10.850;2022-10-26T15:21:55;4.65;;;1.70;;
41436;SDS011;27178;49.460;10.850;2022-10-26T15:24:31;3.30;;;1.70;;
41436;SDS011;27178;49.460;10.850;2022-10-26T15:27:10;2.75;;;1.67;;
41436;SDS011;27178;49.460;10.850;2022-10-26T15:29:43;3.83;;;1.70;;
41436;SDS011;27178;49.460;10.850;2022-10-26T15:35:25;2.33;;;1.70;;
41436;SDS011;27178;49.460;10.850;2022-10-26T15:37:55;2.45;;;1.60;;
41436;SDS011;27178;49.460;10.850;2022-10-26T15:40:26;3.88;;;1.90;;
41436;SDS011;27178;49.460;10.850;2022-10-26T15:42:57;2.60;;;1.73;;
41436;SDS011;27178;49.460;10.850;2022-10-26T15:45:29;2.63;;;1.55;;
41436;SDS011;27178;49.460;10.850;2022-10-26T15:48:14;5.85;;;2.10;;